createdAt,value
2018-09-25T00:01:35.321Z,96154.19
2018-09-25T00:04:09.241Z,96169.87
2018-09-25T00:06:43.151Z,96166.90
2018-09-25T00:09:17.069Z,96173.99
2018-09-25T00:11:51.052Z,96177.48
2018-09-25T00:14:25.079Z,96174.69
2018-09-25T00:16:59.056Z,96175.16
2018-09-25T00:19:32.984Z,96168.83
2018-09-25T00:22:06.915Z,96179.98
2018-09-25T00:24:40.760Z,96177.13
2018-09-25T00:27:14.642Z,96166.44
2018-09-25T00:29:48.655Z,96176.10
2018-09-25T00:32:22.671Z,96191.93
2018-09-25T00:34:56.667Z,96184.85
2018-09-25T00:37:30.679Z,96192.30
2018-09-25T00:40:04.679Z,96193.62
2018-09-25T00:42:38.610Z,96188.88
2018-09-25T00:45:12.704Z,96182.00
2018-09-25T00:47:46.763Z,96192.08
2018-09-25T00:50:21.142Z,96177.99
2018-09-25T00:52:55.170Z,96187.12
2018-09-25T00:55:29.171Z,96186.85
2018-09-25T00:58:03.177Z,96195.85
2018-09-25T01:00:37.176Z,96195.14
2018-09-25T01:03:11.152Z,96204.42
2018-09-25T01:05:45.163Z,96199.88
2018-09-25T01:08:19.092Z,96205.09
2018-09-25T01:10:53.138Z,96214.12
2018-09-25T01:13:27.043Z,96209.47
2018-09-25T01:16:00.969Z,96204.52
2018-09-25T01:18:34.900Z,96217.71
2018-09-25T01:21:08.764Z,96211.06
2018-09-25T01:23:42.747Z,96200.75
2018-09-25T01:26:16.747Z,96205.15
2018-09-25T01:28:50.655Z,96216.36
2018-09-25T01:31:24.607Z,96216.58
2018-09-25T01:33:58.517Z,96205.37
2018-09-25T01:36:32.463Z,96212.64
2018-09-25T01:39:06.446Z,96216.88
2018-09-25T01:41:40.419Z,96217.35
2018-09-25T01:44:14.624Z,96225.01
2018-09-25T01:46:48.744Z,96216.74
2018-09-25T01:49:22.626Z,96232.98
2018-09-25T01:51:56.500Z,96233.34
2018-09-25T01:54:30.474Z,96228.16
2018-09-25T01:57:04.531Z,96229.01
2018-09-25T01:59:38.411Z,96218.84
2018-09-25T02:02:12.424Z,96229.19
2018-09-25T02:04:46.346Z,96218.46
2018-09-25T02:07:20.324Z,96223.00
2018-09-25T02:09:54.274Z,96219.77
2018-09-25T02:12:28.223Z,96225.94
2018-09-25T02:15:02.175Z,96227.73
2018-09-25T02:17:36.159Z,96232.17
2018-09-25T02:20:10.130Z,96234.41
2018-09-25T02:22:44.146Z,96235.41
2018-09-25T02:25:18.062Z,96239.14
2018-09-25T02:27:52.063Z,96238.28
2018-09-25T02:30:25.976Z,96238.63
2018-09-25T02:32:59.888Z,96241.79
2018-09-25T02:35:33.795Z,96252.22
2018-09-25T02:38:07.769Z,96254.88
2018-09-25T02:40:41.686Z,96251.55
2018-09-25T02:43:15.583Z,96253.97
2018-09-25T02:45:49.507Z,96252.00
2018-09-25T02:48:23.515Z,96257.50
2018-09-25T02:50:57.585Z,96257.47
2018-09-25T02:53:31.555Z,96257.27
2018-09-25T02:56:05.503Z,96258.47
2018-09-25T02:58:39.527Z,96255.81
2018-09-25T03:01:13.626Z,96254.08
2018-09-25T03:03:47.648Z,96267.78
2018-09-25T03:06:21.635Z,96265.42
2018-09-25T03:08:55.627Z,96264.52
2018-09-25T03:11:29.622Z,96263.96
2018-09-25T03:14:03.698Z,96273.23
2018-09-25T03:16:37.639Z,96270.25
2018-09-25T03:19:11.748Z,96273.91
2018-09-25T03:21:45.766Z,96282.56
2018-09-25T03:24:19.716Z,96279.38
2018-09-25T03:26:54.465Z,96278.51
2018-09-25T03:29:28.443Z,96278.19
2018-09-25T03:32:02.362Z,96269.56
2018-09-25T03:34:36.271Z,96279.00
2018-09-25T03:37:10.233Z,96274.39
2018-09-25T03:39:44.280Z,96272.23
2018-09-25T03:42:18.242Z,96274.00
2018-09-25T03:44:52.240Z,96266.34
2018-09-25T03:47:26.257Z,96268.78
2018-09-25T03:50:00.216Z,96271.88
2018-09-25T03:52:34.247Z,96276.69
2018-09-25T03:55:08.223Z,96271.59
2018-09-25T03:57:42.176Z,96267.75
2018-09-25T04:00:15.722Z,96278.80
2018-09-25T04:02:49.679Z,96272.23
2018-09-25T04:05:23.780Z,96269.80
2018-09-25T04:07:57.851Z,96276.88
2018-09-25T04:10:31.721Z,96286.68
2018-09-25T04:13:05.693Z,96294.06
2018-09-25T04:15:39.793Z,96293.63
2018-09-25T04:18:13.979Z,96301.88
2018-09-25T04:20:47.971Z,96296.95
2018-09-25T04:23:21.999Z,96305.77
2018-09-25T04:25:56.083Z,96312.37
2018-09-25T04:28:30.263Z,96307.65
2018-09-25T04:31:04.294Z,96308.95
2018-09-25T04:33:38.386Z,96305.28
2018-09-25T04:36:12.639Z,96307.23
2018-09-25T04:38:46.569Z,96320.42
2018-09-25T04:41:20.458Z,96324.12
2018-09-25T04:43:54.451Z,96326.94
2018-09-25T04:46:28.385Z,96330.04
2018-09-25T04:49:02.321Z,96330.65
2018-09-25T04:51:36.336Z,96329.50
2018-09-25T04:54:11.251Z,96326.41
2018-09-25T04:56:45.159Z,96328.30
2018-09-25T04:59:19.200Z,96332.11
2018-09-25T05:01:53.268Z,96328.90
2018-09-25T05:04:27.263Z,96324.84
2018-09-25T05:07:01.276Z,96331.75
2018-09-25T05:09:35.280Z,96333.58
2018-09-25T05:12:09.298Z,96336.12
2018-09-25T05:14:43.318Z,96339.80
2018-09-25T05:17:17.227Z,96340.62
2018-09-25T05:19:52.510Z,96340.40
2018-09-25T05:22:26.596Z,96329.03
2018-09-25T05:25:00.631Z,96334.50
2018-09-25T05:27:34.579Z,96341.84
2018-09-25T05:30:08.508Z,96331.83
2018-09-25T05:32:42.555Z,96338.88
2018-09-25T05:35:16.514Z,96322.16
2018-09-25T05:37:50.619Z,96329.41
2018-09-25T05:40:24.549Z,96344.55
2018-09-25T05:42:59.546Z,96343.08
2018-09-25T05:45:33.688Z,96342.06
2018-09-25T05:48:07.569Z,96348.70
2018-09-25T05:50:41.552Z,96347.06
2018-09-25T05:53:15.475Z,96354.75
2018-09-25T05:55:49.400Z,96348.34
2018-09-25T05:58:23.357Z,96349.05
2018-09-25T06:00:57.384Z,96351.98
2018-09-25T06:03:31.447Z,96336.98
2018-09-25T06:06:05.355Z,96354.00
2018-09-25T06:08:39.410Z,96355.91
2018-09-25T06:11:13.428Z,96338.98
2018-09-25T06:13:47.422Z,96349.05
2018-09-25T06:16:21.440Z,96344.45
2018-09-25T06:18:55.410Z,96335.13
2018-09-25T06:21:29.374Z,96339.09
2018-09-25T06:24:03.329Z,96331.98
2018-09-25T06:26:37.380Z,96350.62
2018-09-25T06:29:11.331Z,96338.72
2018-09-25T06:31:45.307Z,96344.71
2018-09-25T06:34:19.392Z,96338.46
2018-09-25T06:36:53.333Z,96348.17
2018-09-25T06:39:27.351Z,96347.37
2018-09-25T06:42:01.488Z,96331.22
2018-09-25T06:44:35.576Z,96347.15
2018-09-25T06:47:09.538Z,96353.09
2018-09-25T06:49:43.504Z,96336.50
2018-09-25T06:52:17.439Z,96346.67
2018-09-25T06:54:51.458Z,96355.66
2018-09-25T06:57:25.347Z,96355.52
2018-09-25T06:59:59.259Z,96364.08
2018-09-25T07:02:33.274Z,96354.05
2018-09-25T07:05:07.185Z,96363.19
2018-09-25T07:07:41.173Z,96375.53
2018-09-25T07:10:15.405Z,96357.77
2018-09-25T07:12:49.211Z,96354.18
2018-09-25T07:15:23.170Z,96364.53
2018-09-25T07:17:57.147Z,96355.23
2018-09-25T07:20:31.127Z,96370.16
2018-09-25T07:23:05.110Z,96364.55
2018-09-25T07:25:39.133Z,96339.05
2018-09-25T07:28:13.164Z,96358.75
2018-09-25T07:30:47.246Z,96365.63
2018-09-25T07:33:21.267Z,96347.70
2018-09-25T07:35:55.190Z,96347.72
2018-09-25T07:38:29.108Z,96365.41
2018-09-25T07:41:02.989Z,96379.30
2018-09-25T07:43:36.960Z,96379.35
2018-09-25T07:46:10.820Z,96377.98
2018-09-25T07:48:44.800Z,96377.85
2018-09-25T07:51:18.814Z,96377.83
2018-09-25T07:53:52.915Z,96366.06
2018-09-25T07:56:26.939Z,96360.69
2018-09-25T07:59:00.903Z,96368.10
2018-09-25T08:01:35.005Z,96361.38
2018-09-25T08:04:08.935Z,96372.37
2018-09-25T08:06:42.961Z,96368.74
2018-09-25T08:09:17.044Z,96371.42
2018-09-25T08:11:51.112Z,96364.23
2018-09-25T08:14:25.100Z,96367.02
2018-09-25T08:16:59.088Z,96379.12
2018-09-25T08:19:32.993Z,96373.97
2018-09-25T08:22:07.026Z,96365.61
2018-09-25T08:24:41.014Z,96362.41
2018-09-25T08:27:14.965Z,96371.77
2018-09-25T08:29:48.925Z,96365.70
2018-09-25T08:32:23.124Z,96383.52
2018-09-25T08:34:57.303Z,96372.70
2018-09-25T08:37:31.419Z,96377.58
2018-09-25T08:40:06.391Z,96368.59
2018-09-25T08:42:40.281Z,96360.55
2018-09-25T08:45:14.340Z,96375.97
2018-09-25T08:47:48.343Z,96365.69
2018-09-25T08:50:22.353Z,96378.63
2018-09-25T08:52:56.354Z,96365.70
2018-09-25T08:55:30.407Z,96371.44
2018-09-25T08:58:05.127Z,96371.63
2018-09-25T09:00:39.133Z,96377.00
2018-09-25T09:03:13.130Z,96362.23
2018-09-25T09:05:47.160Z,96372.94
2018-09-25T09:08:21.212Z,96368.86
2018-09-25T09:10:55.124Z,96367.82
2018-09-25T09:13:29.237Z,96348.98
2018-09-25T09:16:03.356Z,96363.27
2018-09-25T09:18:37.291Z,96377.02
2018-09-25T09:21:11.209Z,96378.63
2018-09-25T09:23:45.151Z,96374.76
2018-09-25T09:26:19.106Z,96374.93
2018-09-25T09:28:53.004Z,96363.45
2018-09-25T09:31:26.971Z,96364.07
2018-09-25T09:34:01.117Z,96361.09
2018-09-25T09:36:35.045Z,96367.10
2018-09-25T09:39:09.191Z,96368.55
2018-09-25T09:41:43.442Z,96361.37
2018-09-25T09:44:17.235Z,96360.27
2018-09-25T09:46:51.263Z,96358.29
2018-09-25T09:49:25.381Z,96378.09
2018-09-25T09:51:59.323Z,96374.41
2018-09-25T09:54:33.275Z,96372.83
2018-09-25T09:57:07.296Z,96371.45
2018-09-25T09:59:41.208Z,96369.73
2018-09-25T10:02:15.303Z,96367.73
2018-09-25T10:04:49.303Z,96364.00
2018-09-25T10:07:23.348Z,96376.09
2018-09-25T10:09:57.279Z,96369.69
2018-09-25T10:12:31.241Z,96364.45
2018-09-25T10:15:05.203Z,96366.23
2018-09-25T10:17:39.115Z,96365.48
2018-09-25T10:20:13.199Z,96374.82
2018-09-25T10:22:47.191Z,96367.14
2018-09-25T10:25:21.212Z,96373.73
2018-09-25T10:27:55.176Z,96352.78
2018-09-25T10:30:29.112Z,96343.02
2018-09-25T10:33:03.401Z,96342.29
2018-09-25T10:35:37.448Z,96350.80
2018-09-25T10:38:11.520Z,96346.74
2018-09-25T10:40:45.588Z,96340.33
2018-09-25T10:43:19.624Z,96343.51
2018-09-25T10:45:53.570Z,96337.56
2018-09-25T10:48:27.557Z,96347.16
2018-09-25T10:51:01.488Z,96349.47
2018-09-25T10:53:35.359Z,96327.31
2018-09-25T10:56:09.452Z,96332.95
2018-09-25T10:58:43.246Z,96315.95
2018-09-25T11:01:17.155Z,96322.95
2018-09-25T11:03:51.115Z,96316.92
2018-09-25T11:06:25.115Z,96321.54
2018-09-25T11:08:59.037Z,96315.19
2018-09-25T11:11:33.619Z,96312.47
2018-09-25T11:14:07.552Z,96307.91
2018-09-25T11:16:42.254Z,96311.62
2018-09-25T11:19:16.268Z,96306.30
2018-09-25T11:21:50.220Z,96307.14
2018-09-25T11:24:24.350Z,96297.53
2018-09-25T11:26:58.396Z,96292.30
2018-09-25T11:29:32.346Z,96294.80
2018-09-25T11:32:06.240Z,96289.72
2018-09-25T11:34:40.238Z,96292.02
2018-09-25T11:37:14.252Z,96292.84
2018-09-25T11:39:48.224Z,96281.55
2018-09-25T11:42:22.176Z,96274.72
2018-09-25T11:44:56.364Z,96279.59
2018-09-25T11:47:30.403Z,96278.77
2018-09-25T11:50:04.449Z,96272.11
2018-09-25T11:52:38.389Z,96282.19
2018-09-25T11:55:12.375Z,96269.73
2018-09-25T11:57:46.404Z,96279.84
2018-09-25T12:00:20.277Z,96278.67
2018-09-25T12:02:54.178Z,96265.63
2018-09-25T12:05:28.130Z,96272.44
2018-09-25T12:08:02.217Z,96273.23
2018-09-25T12:10:36.177Z,96258.41
2018-09-25T12:13:10.220Z,96261.08
2018-09-25T12:15:44.162Z,96264.89
2018-09-25T12:18:18.130Z,96270.11
2018-09-25T12:20:52.082Z,96267.81
2018-09-25T12:23:26.872Z,96250.17
2018-09-25T12:26:00.735Z,96262.17
2018-09-25T12:28:37.003Z,96259.11
2018-09-25T12:31:11.122Z,96256.13
2018-09-25T12:33:45.067Z,96260.45
2018-09-25T12:36:19.195Z,96262.34
2018-09-25T12:38:53.117Z,96261.64
2018-09-25T12:41:27.047Z,96262.50
2018-09-25T12:44:01.050Z,96263.52
2018-09-25T12:46:35.062Z,96254.87
2018-09-25T12:49:08.978Z,96247.33
2018-09-25T12:51:42.934Z,96242.42
2018-09-25T12:54:16.935Z,96252.92
2018-09-25T12:56:50.968Z,96244.39
2018-09-25T12:59:26.999Z,96243.09
2018-09-25T13:02:01.014Z,96231.77
2018-09-25T13:04:34.946Z,96249.41
2018-09-25T13:07:08.907Z,96232.67
2018-09-25T13:09:42.928Z,96254.44
2018-09-25T13:12:16.812Z,96267.23
2018-09-25T13:14:50.876Z,96258.78
2018-09-25T13:17:24.846Z,96253.30
2018-09-25T13:19:58.841Z,96239.61
2018-09-25T13:22:32.803Z,96245.28
2018-09-25T13:25:06.855Z,96241.33
2018-09-25T13:27:41.606Z,96255.56
2018-09-25T13:30:15.547Z,96245.50
2018-09-25T13:32:49.484Z,96249.30
2018-09-25T13:35:23.571Z,96248.45
2018-09-25T13:37:57.560Z,96257.44
2018-09-25T13:40:31.460Z,96255.86
2018-09-25T13:43:06.189Z,96257.58
2018-09-25T13:45:40.315Z,96255.89
2018-09-25T13:48:14.271Z,96256.38
2018-09-25T13:50:48.272Z,96261.91
2018-09-25T13:53:22.290Z,96252.95
2018-09-25T13:55:57.499Z,96258.30
2018-09-25T13:58:31.566Z,96263.50
2018-09-25T14:01:05.583Z,96256.59
2018-09-25T14:03:46.299Z,96258.60
2018-09-25T14:06:20.335Z,96254.41
2018-09-25T14:08:54.282Z,96255.27
2018-09-25T14:11:30.070Z,96260.09
2018-09-25T14:14:05.992Z,96257.13
2018-09-25T14:16:39.994Z,96257.02
2018-09-25T14:19:13.970Z,96266.21
2018-09-25T14:21:49.043Z,96262.97
2018-09-25T14:24:23.164Z,96267.61
2018-09-25T14:26:57.082Z,96267.72
2018-09-25T14:29:32.028Z,96259.37
2018-09-25T14:32:06.084Z,96267.07
2018-09-25T14:34:40.389Z,96273.48
2018-09-25T14:37:14.348Z,96265.72
2018-09-25T14:39:48.783Z,96263.34
2018-09-25T14:42:22.795Z,96264.33
2018-09-25T14:44:57.805Z,96282.36
2018-09-25T14:47:31.838Z,96281.05
2018-09-25T14:50:05.753Z,96286.27
2018-09-25T14:52:39.668Z,96289.26
2018-09-25T14:55:13.826Z,96287.91
2018-09-25T14:57:47.749Z,96300.60
2018-09-25T15:00:21.768Z,96301.58
2018-09-25T15:02:55.766Z,96306.73
2018-09-25T15:05:29.784Z,96305.55
2018-09-25T15:08:03.791Z,96309.11
2018-09-25T15:10:37.800Z,96312.17
2018-09-25T15:13:11.715Z,96312.59
2018-09-25T15:15:45.609Z,96311.41
2018-09-25T15:18:19.552Z,96309.59
2018-09-25T15:20:53.473Z,96317.81
2018-09-25T15:23:27.471Z,96323.39
2018-09-25T15:26:01.544Z,96322.68
2018-09-25T15:28:35.498Z,96326.23
2018-09-25T15:31:09.508Z,96328.48
2018-09-25T15:33:43.640Z,96339.50
2018-09-25T15:36:17.734Z,96339.70
2018-09-25T15:38:53.136Z,96343.73
2018-09-25T15:41:27.317Z,96341.78
2018-09-25T15:44:01.291Z,96349.77
2018-09-25T15:46:36.168Z,96358.70
2018-09-25T15:49:11.170Z,96348.92
2018-09-25T15:51:45.204Z,96352.98
2018-09-25T15:54:19.459Z,96360.66
2018-09-25T15:56:53.537Z,96362.36
2018-09-25T15:59:27.507Z,96364.23
2018-09-25T16:02:02.233Z,96350.77
2018-09-25T16:04:36.159Z,96363.33
2018-09-25T16:07:10.140Z,96362.45
2018-09-25T16:09:44.177Z,96386.17
2018-09-25T16:12:18.099Z,96378.95
2018-09-25T16:14:58.885Z,96390.83
2018-09-25T16:17:33.026Z,96382.73
2018-09-25T16:20:07.107Z,96379.16
2018-09-25T16:22:41.108Z,96388.80
2018-09-25T16:25:15.312Z,96401.39
2018-09-25T16:27:49.400Z,96407.95
2018-09-25T16:30:24.257Z,96410.85
2018-09-25T16:32:58.402Z,96418.31
2018-09-25T16:35:32.327Z,96420.52
2018-09-25T16:38:07.332Z,96412.39
2018-09-25T16:40:41.369Z,96411.52
2018-09-25T16:43:15.287Z,96419.53
2018-09-25T16:45:49.233Z,96431.55
2018-09-25T16:48:23.988Z,96444.97
2018-09-25T16:50:58.749Z,96446.86
2018-09-25T16:53:32.657Z,96442.04
2018-09-25T16:56:06.732Z,96443.55
2018-09-25T16:58:40.701Z,96442.72
2018-09-25T17:01:14.830Z,96448.94
2018-09-25T17:03:48.797Z,96459.23
2018-09-25T17:06:22.892Z,96465.02
2018-09-25T17:08:56.845Z,96474.09
2018-09-25T17:11:30.766Z,96470.21
2018-09-25T17:14:04.704Z,96474.86
2018-09-25T17:16:39.120Z,96477.53
2018-09-25T17:19:13.312Z,96480.63
2018-09-25T17:21:47.475Z,96474.55
2018-09-25T17:24:21.535Z,96479.58
2018-09-25T17:26:55.671Z,96481.23
2018-09-25T17:29:30.190Z,96490.76
2018-09-25T17:32:04.296Z,96498.62
2018-09-25T17:34:38.256Z,96509.89
2018-09-25T17:37:12.299Z,96513.31
2018-09-25T17:39:46.274Z,96508.55
2018-09-25T17:42:20.262Z,96510.30
2018-09-25T17:44:54.416Z,96512.89
2018-09-25T17:47:28.390Z,96516.70
2018-09-25T17:50:02.356Z,96523.73
2018-09-25T17:52:36.245Z,96534.47
2018-09-25T17:55:11.611Z,96535.15
2018-09-25T17:57:46.548Z,96545.67
2018-09-25T18:00:22.293Z,96546.22
2018-09-25T18:02:56.290Z,96538.98
2018-09-25T18:05:30.197Z,96535.82
2018-09-25T18:08:04.124Z,96537.91
2018-09-25T18:10:38.187Z,96548.33
2018-09-25T18:13:12.203Z,96553.47
2018-09-25T18:15:46.220Z,96564.26
2018-09-25T18:18:20.134Z,96566.94
2018-09-25T18:20:54.539Z,96562.95
2018-09-25T18:23:28.553Z,96562.70
2018-09-25T18:26:02.500Z,96561.59
2018-09-25T18:28:36.547Z,96565.41
2018-09-25T18:31:10.501Z,96571.36
2018-09-25T18:33:44.410Z,96573.19
2018-09-25T18:36:18.337Z,96575.16
2018-09-25T18:38:53.688Z,96586.02
2018-09-25T18:41:27.620Z,96584.93
2018-09-25T18:44:01.520Z,96587.16
2018-09-25T18:46:35.519Z,96592.32
2018-09-25T18:49:09.400Z,96600.28
2018-09-25T18:51:43.377Z,96599.92
2018-09-25T18:54:17.398Z,96603.81
2018-09-25T18:56:51.338Z,96607.27
2018-09-25T18:59:25.338Z,96607.13
2018-09-25T19:02:00.457Z,96607.80
2018-09-25T19:04:34.538Z,96616.92
2018-09-25T19:07:08.592Z,96616.41
2018-09-25T19:09:42.605Z,96614.20
2018-09-25T19:12:16.477Z,96613.91
2018-09-25T19:14:50.420Z,96614.84
2018-09-25T19:17:24.722Z,96619.95
2018-09-25T19:19:58.666Z,96630.53
2018-09-25T19:22:32.584Z,96630.36
2018-09-25T19:25:06.635Z,96628.36
2018-09-25T19:27:40.774Z,96637.06
2018-09-25T19:30:14.996Z,96640.94
2018-09-25T19:32:49.070Z,96637.95
2018-09-25T19:35:22.952Z,96640.03
2018-09-25T19:37:56.896Z,96638.44
2018-09-25T19:40:30.882Z,96637.80
2018-09-25T19:43:04.843Z,96641.69
2018-09-25T19:45:38.816Z,96648.33
2018-09-25T19:48:12.684Z,96657.03
2018-09-25T19:50:46.843Z,96656.30
2018-09-25T19:53:20.945Z,96650.81
2018-09-25T19:55:54.896Z,96656.30
2018-09-25T19:58:28.829Z,96654.45
2018-09-25T20:01:02.750Z,96658.03
2018-09-25T20:03:36.716Z,96667.34
2018-09-25T20:06:10.594Z,96666.66
2018-09-25T20:08:44.635Z,96673.07
2018-09-25T20:11:18.835Z,96681.21
2018-09-25T20:13:52.777Z,96679.00
2018-09-25T20:16:26.704Z,96669.94
2018-09-25T20:19:00.662Z,96668.70
2018-09-25T20:21:34.594Z,96677.11
2018-09-25T20:24:08.527Z,96673.55
2018-09-25T20:26:42.524Z,96673.86
2018-09-25T20:29:23.489Z,96672.52
2018-09-25T20:31:57.366Z,96678.52
2018-09-25T20:34:32.778Z,96678.45
2018-09-25T20:37:06.800Z,96680.31
2018-09-25T20:39:40.731Z,96689.23
2018-09-25T20:42:14.809Z,96686.96
2018-09-25T20:44:48.772Z,96684.55
2018-09-25T20:47:22.776Z,96685.52
2018-09-25T20:49:56.896Z,96686.27
2018-09-25T20:52:30.835Z,96685.13
2018-09-25T20:55:04.763Z,96691.58
2018-09-25T20:57:38.695Z,96689.12
2018-09-25T21:00:12.833Z,96688.31
2018-09-25T21:02:46.787Z,96687.37
2018-09-25T21:05:20.724Z,96684.52
2018-09-25T21:07:54.596Z,96694.06
2018-09-25T21:10:28.559Z,96695.16
2018-09-25T21:13:02.645Z,96693.98
2018-09-25T21:15:37.166Z,96688.96
2018-09-25T21:18:11.105Z,96694.56
2018-09-25T21:20:45.111Z,96693.35
2018-09-25T21:23:19.065Z,96698.02
2018-09-25T21:25:53.227Z,96692.17
2018-09-25T21:28:27.244Z,96698.37
2018-09-25T21:31:01.199Z,96688.96
2018-09-25T21:33:35.184Z,96692.44
2018-09-25T21:36:09.724Z,96693.02
2018-09-25T21:38:43.639Z,96688.75
2018-09-25T21:41:17.570Z,96693.50
2018-09-25T21:43:51.608Z,96693.67
2018-09-25T21:46:25.612Z,96686.89
2018-09-25T21:48:59.544Z,96689.97
2018-09-25T21:51:33.645Z,96683.92
2018-09-25T21:54:07.584Z,96687.25
2018-09-25T21:56:41.651Z,96683.12
2018-09-25T21:59:17.556Z,96678.36
2018-09-25T22:01:51.679Z,96682.03
2018-09-25T22:04:25.637Z,96680.38
2018-09-25T22:07:00.426Z,96674.69
2018-09-25T22:09:34.394Z,96686.09
2018-09-25T22:12:08.537Z,96680.73
2018-09-25T22:14:43.512Z,96686.86
2018-09-25T22:17:17.550Z,96684.24
2018-09-25T22:19:51.790Z,96687.90
2018-09-25T22:22:25.754Z,96690.89
2018-09-25T22:24:59.888Z,96688.16
2018-09-25T22:27:34.147Z,96689.59
2018-09-25T22:30:08.443Z,96689.20
2018-09-25T22:32:42.625Z,96686.37
2018-09-25T22:35:16.697Z,96686.97
2018-09-25T22:37:50.645Z,96682.79
2018-09-25T22:40:24.608Z,96688.34
2018-09-25T22:42:58.622Z,96693.45
2018-09-25T22:45:33.124Z,96690.35
2018-09-25T22:48:07.037Z,96687.47
2018-09-25T22:50:41.940Z,96689.02
2018-09-25T22:53:15.871Z,96699.55
2018-09-25T22:55:49.894Z,96701.33
2018-09-25T22:58:24.702Z,96699.27
2018-09-25T23:00:58.627Z,96694.41
2018-09-25T23:03:32.745Z,96696.80
2018-09-25T23:06:06.661Z,96697.68
2018-09-25T23:08:40.819Z,96698.95
2018-09-25T23:11:14.805Z,96691.75
2018-09-25T23:13:48.716Z,96698.87
2018-09-25T23:16:22.565Z,96694.36
2018-09-25T23:18:56.524Z,96690.55
2018-09-25T23:21:30.491Z,96693.95
2018-09-25T23:24:04.503Z,96699.38
2018-09-25T23:26:38.431Z,96698.91
2018-09-25T23:29:12.651Z,96701.78
2018-09-25T23:31:46.556Z,96697.89
2018-09-25T23:34:20.488Z,96699.17
2018-09-25T23:36:54.618Z,96707.53
2018-09-25T23:39:33.581Z,96710.23
2018-09-25T23:42:12.820Z,96706.09
2018-09-25T23:44:51.078Z,96708.78
2018-09-25T23:47:26.958Z,96713.61
2018-09-25T23:50:00.195Z,96717.04
2018-09-25T23:52:38.032Z,96715.02
2018-09-25T23:55:30.543Z,96718.50
2018-09-25T23:58:35.634Z,96722.17
